sensor_id;sensor_type;location;lat;lon;timestamp;pressure;altitude;pressure_sealevel;temperature;humidity
37778;BME280;23615;51.506;7.678;2024-02-04T00:01:39;100724.06;;;10.22;100.00
37778;BME280;23615;51.506;7.678;2024-02-04T00:04:04;100719.75;;;10.21;100.00
37778;BME280;23615;51.506;7.678;2024-02-04T00:06:30;100717.88;;;10.14;100.00
37778;BME280;23615;51.506;7.678;2024-02-04T00:08:55;100706.84;;;10.18;100.00
37778;BME280;23615;51.506;7.678;2024-02-04T00:11:20;100716.84;;;10.16;100.00
37778;BME280;23615;51.506;7.678;2024-02-04T00:13:46;100719.75;;;10.21;100.00
37778;BME280;23615;51.506;7.678;2024-02-04T00:16:11;100715.66;;;10.18;100.00
37778;BME280;23615;51.506;7.678;2024-02-04T00:18:36;100709.72;;;10.23;100.00
37778;BME280;23615;51.506;7.678;2024-02-04T00:21:02;100705.19;;;10.23;100.00
37778;BME280;23615;51.506;7.678;2024-02-04T00:23:27;100708.28;;;10.27;100.00
37778;BME280;23615;51.506;7.678;2024-02-04T00:25:52;100706.63;;;10.32;100.00
37778;BME280;23615;51.506;7.678;2024-02-04T00:28:17;100705.63;;;10.33;100.00
37778;BME280;23615;51.506;7.678;2024-02-04T00:30:44;100692.69;;;10.24;100.00
37778;BME280;23615;51.506;7.678;2024-02-04T00:33:09;100699.84;;;10.30;100.00
37778;BME280;23615;51.506;7.678;2024-02-04T00:35:34;100697.81;;;10.32;100.00
37778;BME280;23615;51.506;7.678;2024-02-04T00:38:00;100698.66;;;10.45;100.00
37778;BME280;23615;51.506;7.678;2024-02-04T00:40:25;100700.91;;;10.35;100.00
37778;BME280;23615;51.506;7.678;2024-02-04T00:42:51;100695.97;;;10.26;100.00
37778;BME280;23615;51.506;7.678;2024-02-04T00:45:17;100700.47;;;10.32;100.00
37778;BME280;23615;51.506;7.678;2024-02-04T00:47:42;100700.28;;;10.27;100.00
37778;BME280;23615;51.506;7.678;2024-02-04T00:50:08;100702.34;;;10.25;100.00
37778;BME280;23615;51.506;7.678;2024-02-04T00:52:33;100699.84;;;10.30;100.00
37778;BME280;23615;51.506;7.678;2024-02-04T00:54:58;100697.16;;;10.17;100.00
37778;BME280;23615;51.506;7.678;2024-02-04T00:57:24;100703.75;;;10.21;100.00
37778;BME280;23615;51.506;7.678;2024-02-04T00:59:49;100697.81;;;10.19;100.00
37778;BME280;23615;51.506;7.678;2024-02-04T01:02:15;100700.50;;;10.19;100.00
37778;BME280;23615;51.506;7.678;2024-02-04T01:04:41;100685.50;;;10.31;100.00
37778;BME280;23615;51.506;7.678;2024-02-04T01:07:06;100683.41;;;10.13;100.00
37778;BME280;23615;51.506;7.678;2024-02-04T01:09:31;100687.16;;;10.25;100.00
37778;BME280;23615;51.506;7.678;2024-02-04T01:11:57;100687.78;;;10.27;100.00
37778;BME280;23615;51.506;7.678;2024-02-04T01:14:22;100690.44;;;10.34;100.00
37778;BME280;23615;51.506;7.678;2024-02-04T01:16:47;100691.88;;;10.23;100.00
37778;BME280;23615;51.506;7.678;2024-02-04T01:19:13;100701.09;;;10.27;100.00
37778;BME280;23615;51.506;7.678;2024-02-04T01:21:38;100709.69;;;10.16;100.00
37778;BME280;23615;51.506;7.678;2024-02-04T01:24:03;100709.69;;;10.16;100.00
37778;BME280;23615;51.506;7.678;2024-02-04T01:26:29;100692.47;;;10.25;100.00
37778;BME280;23615;51.506;7.678;2024-02-04T01:28:54;100704.56;;;10.21;100.00
37778;BME280;23615;51.506;7.678;2024-02-04T01:31:19;100696.13;;;10.11;100.00
37778;BME280;23615;51.506;7.678;2024-02-04T01:33:45;100691.84;;;10.17;100.00
37778;BME280;23615;51.506;7.678;2024-02-04T01:36:11;100689.16;;;10.03;100.00
37778;BME280;23615;51.506;7.678;2024-02-04T01:38:36;100686.28;;;10.11;100.00
37778;BME280;23615;51.506;7.678;2024-02-04T01:41:01;100692.84;;;10.02;100.00
37778;BME280;23615;51.506;7.678;2024-02-04T01:43:27;100691.22;;;10.01;100.00
37778;BME280;23615;51.506;7.678;2024-02-04T01:45:52;100683.84;;;10.10;100.00
37778;BME280;23615;51.506;7.678;2024-02-04T01:48:19;100680.94;;;10.11;100.00
37778;BME280;23615;51.506;7.678;2024-02-04T01:50:47;100679.53;;;10.09;100.00
37778;BME280;23615;51.506;7.678;2024-02-04T01:53:15;100679.72;;;10.07;100.00
37778;BME280;23615;51.506;7.678;2024-02-04T01:55:40;100673.56;;;10.13;100.00
37778;BME280;23615;51.506;7.678;2024-02-04T01:58:06;100669.66;;;9.96;100.00
37778;BME280;23615;51.506;7.678;2024-02-04T02:00:32;100668.03;;;10.08;100.00
37778;BME280;23615;51.506;7.678;2024-02-04T02:02:59;100671.53;;;10.09;100.00
37778;BME280;23615;51.506;7.678;2024-02-04T02:05:26;100671.72;;;10.07;100.00
37778;BME280;23615;51.506;7.678;2024-02-04T02:07:51;100676.88;;;10.09;100.00
37778;BME280;23615;51.506;7.678;2024-02-04T02:10:18;100668.88;;;10.09;100.00
37778;BME280;23615;51.506;7.678;2024-02-04T02:12:50;100669.47;;;9.98;100.00
37778;BME280;23615;51.506;7.678;2024-02-04T02:15:22;100659.00;;;9.90;100.00
37778;BME280;23615;51.506;7.678;2024-02-04T02:17:57;100651.00;;;10.03;100.00
37778;BME280;23615;51.506;7.678;2024-02-04T02:23:22;100651.00;;;9.96;100.00
37778;BME280;23615;51.506;7.678;2024-02-04T02:25:55;100667.63;;;9.98;100.00
37778;BME280;23615;51.506;7.678;2024-02-04T02:28:21;100668.66;;;9.97;100.00
37778;BME280;23615;51.506;7.678;2024-02-04T02:30:46;100667.63;;;9.98;100.00
37778;BME280;23615;51.506;7.678;2024-02-04T02:33:11;100668.66;;;9.91;100.00
37778;BME280;23615;51.506;7.678;2024-02-04T02:35:37;100664.94;;;9.85;100.00
37778;BME280;23615;51.506;7.678;2024-02-04T02:38:25;100663.50;;;9.83;100.00
37778;BME280;23615;51.506;7.678;2024-02-04T02:40:59;100666.19;;;9.83;100.00
37778;BME280;23615;51.506;7.678;2024-02-04T02:43:29;100672.31;;;9.83;100.00
37778;BME280;23615;51.506;7.678;2024-02-04T02:45:55;100664.72;;;9.80;100.00
37778;BME280;23615;51.506;7.678;2024-02-04T02:48:21;100662.47;;;9.84;100.00
37778;BME280;23615;51.506;7.678;2024-02-04T02:50:47;100662.28;;;9.92;100.00
37778;BME280;23615;51.506;7.678;2024-02-04T02:53:12;100654.06;;;9.93;100.00
37778;BME280;23615;51.506;7.678;2024-02-04T02:55:38;100650.19;;;9.89;100.00
37778;BME280;23615;51.506;7.678;2024-02-04T02:58:03;100648.34;;;9.83;100.00
37778;BME280;23615;51.506;7.678;2024-02-04T03:00:28;100650.97;;;9.76;100.00
37778;BME280;23615;51.506;7.678;2024-02-04T03:02:54;100660.22;;;9.81;100.00
37778;BME280;23615;51.506;7.678;2024-02-04T03:05:19;100646.69;;;9.89;100.00
37778;BME280;23615;51.506;7.678;2024-02-04T03:07:45;100651.84;;;9.90;100.00
37778;BME280;23615;51.506;7.678;2024-02-04T03:10:10;100657.97;;;9.91;100.00
37778;BME280;23615;51.506;7.678;2024-02-04T03:12:35;100651.81;;;9.97;100.00
37778;BME280;23615;51.506;7.678;2024-02-04T03:15:01;100654.28;;;10.05;100.00
37778;BME280;23615;51.506;7.678;2024-02-04T03:17:26;100652.44;;;9.92;100.00
37778;BME280;23615;51.506;7.678;2024-02-04T03:19:52;100653.66;;;9.90;100.00
37778;BME280;23615;51.506;7.678;2024-02-04T03:22:19;100646.50;;;9.97;100.00
37778;BME280;23615;51.506;7.678;2024-02-04T03:24:46;100639.13;;;9.92;100.00
37778;BME280;23615;51.506;7.678;2024-02-04T03:27:12;100648.97;;;9.92;100.00
37778;BME280;23615;51.506;7.678;2024-02-04T03:29:37;100646.91;;;9.94;100.00
37778;BME280;23615;51.506;7.678;2024-02-04T03:32:03;100644.44;;;9.99;100.00
37778;BME280;23615;51.506;7.678;2024-02-04T03:34:28;100647.94;;;9.99;100.00
37778;BME280;23615;51.506;7.678;2024-02-04T03:36:53;100651.00;;;9.96;100.00
37778;BME280;23615;51.506;7.678;2024-02-04T03:39:20;100644.03;;;9.95;100.00
37778;BME280;23615;51.506;7.678;2024-02-04T03:41:45;100649.16;;;9.90;100.00
37778;BME280;23615;51.506;7.678;2024-02-04T03:44:10;100659.63;;;9.98;100.00
37778;BME280;23615;51.506;7.678;2024-02-04T03:46:36;100646.50;;;9.97;100.00
37778;BME280;23615;51.506;7.678;2024-02-04T03:49:05;100644.44;;;9.99;100.00
37778;BME280;23615;51.506;7.678;2024-02-04T03:51:30;100640.56;;;10.01;100.00
37778;BME280;23615;51.506;7.678;2024-02-04T03:53:56;100642.81;;;10.04;100.00
37778;BME280;23615;51.506;7.678;2024-02-04T03:56:21;100645.47;;;9.98;100.00
37778;BME280;23615;51.506;7.678;2024-02-04T03:58:46;100640.34;;;9.96;100.00
37778;BME280;23615;51.506;7.678;2024-02-04T04:01:12;100639.31;;;9.97;100.00
37778;BME280;23615;51.506;7.678;2024-02-04T04:03:41;100655.13;;;9.99;100.00
37778;BME280;23615;51.506;7.678;2024-02-04T04:06:07;100665.78;;;9.99;100.00
37778;BME280;23615;51.506;7.678;2024-02-04T04:08:32;100656.75;;;10.00;100.00
37778;BME280;23615;51.506;7.678;2024-02-04T04:10:58;100655.13;;;9.99;100.00
37778;BME280;23615;51.506;7.678;2024-02-04T04:13:23;100648.56;;;10.01;100.00
37778;BME280;23615;51.506;7.678;2024-02-04T04:15:48;100654.69;;;10.02;100.00
37778;BME280;23615;51.506;7.678;2024-02-04T04:18:13;100651.22;;;10.01;100.00
37778;BME280;23615;51.506;7.678;2024-02-04T04:20:40;100645.66;;;10.03;100.00
37778;BME280;23615;51.506;7.678;2024-02-04T04:23:05;100646.72;;;10.08;100.00
37778;BME280;23615;51.506;7.678;2024-02-04T04:25:30;100638.72;;;10.08;100.00
37778;BME280;23615;51.506;7.678;2024-02-04T04:27:56;100635.00;;;10.03;100.00
37778;BME280;23615;51.506;7.678;2024-02-04T04:30:23;100639.94;;;10.12;100.00
37778;BME280;23615;51.506;7.678;2024-02-04T04:32:49;100651.00;;;10.03;100.00
37778;BME280;23615;51.506;7.678;2024-02-04T04:35:14;100648.56;;;10.01;100.00
37778;BME280;23615;51.506;7.678;2024-02-04T04:37:39;100646.28;;;10.05;100.00
37778;BME280;23615;51.506;7.678;2024-02-04T04:40:05;100645.25;;;10.12;100.00
37778;BME280;23615;51.506;7.678;2024-02-04T04:42:30;100640.19;;;10.18;100.00
37778;BME280;23615;51.506;7.678;2024-02-04T04:44:56;100640.75;;;10.13;100.00
37778;BME280;23615;51.506;7.678;2024-02-04T04:47:21;100648.75;;;10.13;100.00
37778;BME280;23615;51.506;7.678;2024-02-04T04:49:47;100648.13;;;10.04;100.00
37778;BME280;23615;51.506;7.678;2024-02-04T04:52:12;100656.56;;;10.14;100.00
37778;BME280;23615;51.506;7.678;2024-02-04T04:54:39;100644.44;;;10.12;100.00
37778;BME280;23615;51.506;7.678;2024-02-04T04:57:04;100651.00;;;10.03;100.00
37778;BME280;23615;51.506;7.678;2024-02-04T04:59:30;100637.28;;;9.99;100.00
37778;BME280;23615;51.506;7.678;2024-02-04T05:01:55;100628.44;;;10.05;100.00
37778;BME280;23615;51.506;7.678;2024-02-04T05:04:20;100626.81;;;10.04;100.00
37778;BME280;23615;51.506;7.678;2024-02-04T05:06:48;100632.56;;;10.08;100.00
37778;BME280;23615;51.506;7.678;2024-02-04T05:09:13;100623.94;;;10.06;100.00
37778;BME280;23615;51.506;7.678;2024-02-04T05:11:39;100631.13;;;10.05;100.00
37778;BME280;23615;51.506;7.678;2024-02-04T05:14:04;100636.84;;;10.02;100.00
37778;BME280;23615;51.506;7.678;2024-02-04T05:16:30;100646.09;;;10.00;100.00
37778;BME280;23615;51.506;7.678;2024-02-04T05:18:55;100636.66;;;10.04;100.00
37778;BME280;23615;51.506;7.678;2024-02-04T05:21:20;100631.75;;;10.01;100.00
37778;BME280;23615;51.506;7.678;2024-02-04T05:23:46;100628.47;;;9.99;100.00
37778;BME280;23615;51.506;7.678;2024-02-04T05:26:11;100632.53;;;9.95;100.00
37778;BME280;23615;51.506;7.678;2024-02-04T05:28:36;100637.47;;;9.91;100.00
37778;BME280;23615;51.506;7.678;2024-02-04T05:31:02;100636.22;;;9.94;100.00
37778;BME280;23615;51.506;7.678;2024-02-04T05:33:28;100632.16;;;9.91;100.00
37778;BME280;23615;51.506;7.678;2024-02-04T05:35:53;100624.75;;;9.93;100.00
37778;BME280;23615;51.506;7.678;2024-02-04T05:38:18;100618.00;;;9.97;100.00
37778;BME280;23615;51.506;7.678;2024-02-04T05:40:44;100624.56;;;10.01;100.00
37778;BME280;23615;51.506;7.678;2024-02-04T05:43:09;100628.47;;;9.99;100.00
37778;BME280;23615;51.506;7.678;2024-02-04T05:45:37;100626.38;;;9.94;100.00
37778;BME280;23615;51.506;7.678;2024-02-04T05:48:04;100616.56;;;9.95;100.00
37778;BME280;23615;51.506;7.678;2024-02-04T05:50:29;100612.47;;;9.92;100.00
37778;BME280;23615;51.506;7.678;2024-02-04T05:52:54;100609.19;;;9.90;100.00
37778;BME280;23615;51.506;7.678;2024-02-04T05:55:20;100609.59;;;9.87;100.00
37778;BME280;23615;51.506;7.678;2024-02-04T05:57:45;100610.59;;;9.86;100.00
37778;BME280;23615;51.506;7.678;2024-02-04T06:00:11;100619.22;;;9.88;100.00
37778;BME280;23615;51.506;7.678;2024-02-04T06:02:37;100612.88;;;9.89;100.00
37778;BME280;23615;51.506;7.678;2024-02-04T06:05:02;100614.91;;;9.94;100.00
37778;BME280;23615;51.506;7.678;2024-02-04T06:07:28;100618.81;;;9.91;100.00
37778;BME280;23615;51.506;7.678;2024-02-04T06:09:54;100617.56;;;9.87;100.00
37778;BME280;23615;51.506;7.678;2024-02-04T06:12:21;100624.97;;;9.92;100.00
37778;BME280;23615;51.506;7.678;2024-02-04T06:14:46;100608.75;;;9.93;100.00
37778;BME280;23615;51.506;7.678;2024-02-04T06:17:12;100612.88;;;9.96;100.00
37778;BME280;23615;51.506;7.678;2024-02-04T06:19:37;100608.78;;;10.00;100.00
37778;BME280;23615;51.506;7.678;2024-02-04T06:22:02;100608.34;;;10.03;100.00
37778;BME280;23615;51.506;7.678;2024-02-04T06:24:28;100605.09;;;10.01;100.00
37778;BME280;23615;51.506;7.678;2024-02-04T06:26:53;100606.94;;;10.00;100.00
37778;BME280;23615;51.506;7.678;2024-02-04T06:29:18;100604.84;;;10.02;100.00
37778;BME280;23615;51.506;7.678;2024-02-04T06:31:44;100613.69;;;9.96;100.00
37778;BME280;23615;51.506;7.678;2024-02-04T06:34:10;100607.75;;;10.01;100.00
37778;BME280;23615;51.506;7.678;2024-02-04T06:36:36;100611.03;;;9.96;100.00
37778;BME280;23615;51.506;7.678;2024-02-04T06:39:01;100620.25;;;10.00;100.00
37778;BME280;23615;51.506;7.678;2024-02-04T06:41:26;100590.94;;;10.00;100.00
37778;BME280;23615;51.506;7.678;2024-02-04T06:43:51;100592.78;;;10.06;100.00
37778;BME280;23615;51.506;7.678;2024-02-04T06:46:24;100587.03;;;9.96;100.00
37778;BME280;23615;51.506;7.678;2024-02-04T06:48:50;100573.09;;;10.01;100.00
37778;BME280;23615;51.506;7.678;2024-02-04T06:51:15;100566.50;;;10.03;100.00
37778;BME280;23615;51.506;7.678;2024-02-04T06:53:40;100568.78;;;10.06;100.00
37778;BME280;23615;51.506;7.678;2024-02-04T06:56:06;100566.50;;;10.17;100.00
37778;BME280;23615;51.506;7.678;2024-02-04T06:58:32;100564.06;;;10.08;100.00
37778;BME280;23615;51.506;7.678;2024-02-04T07:00:57;100553.38;;;10.15;100.00
37778;BME280;23615;51.506;7.678;2024-02-04T07:03:22;100547.03;;;10.16;100.00
37778;BME280;23615;51.506;7.678;2024-02-04T07:05:48;100549.91;;;10.14;100.00
37778;BME280;23615;51.506;7.678;2024-02-04T07:08:13;100551.56;;;10.09;100.00
37778;BME280;23615;51.506;7.678;2024-02-04T07:10:39;100553.81;;;9.99;100.00
37778;BME280;23615;51.506;7.678;2024-02-04T07:13:04;100558.94;;;9.87;100.00
37778;BME280;23615;51.506;7.678;2024-02-04T07:15:30;100562.22;;;9.89;100.00
37778;BME280;23615;51.506;7.678;2024-02-04T07:17:55;100573.50;;;9.91;100.00
37778;BME280;23615;51.506;7.678;2024-02-04T07:20:20;100565.28;;;9.86;100.00
37778;BME280;23615;51.506;7.678;2024-02-04T07:22:46;100578.22;;;9.89;100.00
37778;BME280;23615;51.506;7.678;2024-02-04T07:25:11;100575.94;;;9.93;100.00
37778;BME280;23615;51.506;7.678;2024-02-04T07:27:36;100596.47;;;9.92;100.00
37778;BME280;23615;51.506;7.678;2024-02-04T07:30:02;100583.75;;;9.88;100.00
37778;BME280;23615;51.506;7.678;2024-02-04T07:32:29;100587.03;;;9.96;100.00
37778;BME280;23615;51.506;7.678;2024-02-04T07:34:54;100583.75;;;9.88;100.00
37778;BME280;23615;51.506;7.678;2024-02-04T07:37:19;100574.31;;;9.85;100.00
37778;BME280;23615;51.506;7.678;2024-02-04T07:39:45;100567.75;;;9.88;100.00
37778;BME280;23615;51.506;7.678;2024-02-04T07:42:10;100574.75;;;9.89;100.00
37778;BME280;23615;51.506;7.678;2024-02-04T07:44:35;100568.97;;;9.85;100.00
37778;BME280;23615;51.506;7.678;2024-02-04T07:47:01;100572.28;;;9.87;100.00
37778;BME280;23615;51.506;7.678;2024-02-04T07:49:26;100566.53;;;9.90;100.00
37778;BME280;23615;51.506;7.678;2024-02-04T07:51:51;100572.06;;;9.89;100.00
37778;BME280;23615;51.506;7.678;2024-02-04T07:54:17;100571.44;;;9.87;100.00
37778;BME280;23615;51.506;7.678;2024-02-04T07:56:42;100568.59;;;9.82;100.00
37778;BME280;23615;51.506;7.678;2024-02-04T07:59:07;100569.81;;;9.92;100.00
37778;BME280;23615;51.506;7.678;2024-02-04T08:01:33;100572.69;;;9.97;100.00
37778;BME280;23615;51.506;7.678;2024-02-04T08:03:58;100576.78;;;10.00;100.00
37778;BME280;23615;51.506;7.678;2024-02-04T08:06:24;100574.31;;;9.98;100.00
37778;BME280;23615;51.506;7.678;2024-02-04T08:08:50;100580.03;;;10.02;100.00
37778;BME280;23615;51.506;7.678;2024-02-04T08:11:19;100579.66;;;9.98;100.00
37778;BME280;23615;51.506;7.678;2024-02-04T08:13:45;100571.25;;;10.08;100.00
37778;BME280;23615;51.506;7.678;2024-02-04T08:16:11;100578.03;;;10.10;100.00
37778;BME280;23615;51.506;7.678;2024-02-04T08:18:37;100571.88;;;10.10;100.00
37778;BME280;23615;51.506;7.678;2024-02-04T08:21:02;100572.28;;;10.07;100.00
37778;BME280;23615;51.506;7.678;2024-02-04T08:23:28;100578.41;;;10.07;100.00
37778;BME280;23615;51.506;7.678;2024-02-04T08:25:53;100575.34;;;10.10;100.00
37778;BME280;23615;51.506;7.678;2024-02-04T08:28:19;100570.59;;;10.12;100.00
37778;BME280;23615;51.506;7.678;2024-02-04T08:30:44;100567.34;;;10.04;100.00
37778;BME280;23615;51.506;7.678;2024-02-04T08:33:10;100562.63;;;9.99;100.00
37778;BME280;23615;51.506;7.678;2024-02-04T08:35:35;100582.50;;;10.03;100.00
37778;BME280;23615;51.506;7.678;2024-02-04T08:38:00;100572.69;;;9.97;100.00
37778;BME280;23615;51.506;7.678;2024-02-04T08:40:25;100569.38;;;10.02;100.00
37778;BME280;23615;51.506;7.678;2024-02-04T08:42:51;100560.38;;;10.03;100.00
37778;BME280;23615;51.506;7.678;2024-02-04T08:45:16;100569.59;;;10.07;100.00
37778;BME280;23615;51.506;7.678;2024-02-04T08:47:41;100568.16;;;9.98;100.00
37778;BME280;23615;51.506;7.678;2024-02-04T08:50:08;100561.00;;;9.98;100.00
37778;BME280;23615;51.506;7.678;2024-02-04T08:52:33;100557.50;;;10.04;100.00
37778;BME280;23615;51.506;7.678;2024-02-04T08:54:58;100561.63;;;10.00;100.00
37778;BME280;23615;51.506;7.678;2024-02-04T08:57:25;100542.31;;;10.05;100.00
37778;BME280;23615;51.506;7.678;2024-02-04T08:59:50;100548.47;;;10.05;100.00
37778;BME280;23615;51.506;7.678;2024-02-04T09:02:15;100567.13;;;10.12;100.00
37778;BME280;23615;51.506;7.678;2024-02-04T09:04:41;100564.06;;;10.08;100.00
37778;BME280;23615;51.506;7.678;2024-02-04T09:07:07;100557.09;;;10.07;100.00
37778;BME280;23615;51.506;7.678;2024-02-04T09:09:33;100573.91;;;10.08;100.00
37778;BME280;23615;51.506;7.678;2024-02-04T09:11:58;100572.06;;;10.08;100.00
37778;BME280;23615;51.506;7.678;2024-02-04T09:14:23;100564.28;;;10.07;100.00
37778;BME280;23615;51.506;7.678;2024-02-04T09:16:49;100572.69;;;10.10;100.00
37778;BME280;23615;51.506;7.678;2024-02-04T09:19:14;100570.03;;;10.10;100.00
37778;BME280;23615;51.506;7.678;2024-02-04T09:21:39;100570.81;;;10.11;100.00
37778;BME280;23615;51.506;7.678;2024-02-04T09:24:05;100567.53;;;10.16;100.00
37778;BME280;23615;51.506;7.678;2024-02-04T09:26:30;100562.59;;;10.12;100.00
37778;BME280;23615;51.506;7.678;2024-02-04T09:28:56;100566.72;;;10.22;100.00
37778;BME280;23615;51.506;7.678;2024-02-04T09:31:21;100569.84;;;10.19;100.00
37778;BME280;23615;51.506;7.678;2024-02-04T09:33:46;100563.03;;;10.23;100.00
37778;BME280;23615;51.506;7.678;2024-02-04T09:36:12;100564.50;;;10.19;100.00
37778;BME280;23615;51.506;7.678;2024-02-04T09:38:37;100565.69;;;10.16;100.00
37778;BME280;23615;51.506;7.678;2024-02-04T09:41:02;100571.03;;;10.23;100.00
37778;BME280;23615;51.506;7.678;2024-02-04T09:43:32;100560.56;;;10.14;100.00
37778;BME280;23615;51.506;7.678;2024-02-04T09:45:59;100555.63;;;10.11;100.00
37778;BME280;23615;51.506;7.678;2024-02-04T09:48:25;100571.03;;;10.09;100.00
37778;BME280;23615;51.506;7.678;2024-02-04T09:50:51;100572.25;;;10.13;100.00
37778;BME280;23615;51.506;7.678;2024-02-04T09:53:21;100583.34;;;10.04;100.00
37778;BME280;23615;51.506;7.678;2024-02-04T09:55:50;100563.25;;;10.08;100.00
37778;BME280;23615;51.506;7.678;2024-02-04T09:58:16;100573.31;;;9.99;100.00
37778;BME280;23615;51.506;7.678;2024-02-04T10:00:42;100573.50;;;9.98;100.00
37778;BME280;23615;51.506;7.678;2024-02-04T10:03:10;100572.50;;;9.92;100.00
37778;BME280;23615;51.506;7.678;2024-02-04T10:05:35;100582.75;;;9.82;100.00
37778;BME280;23615;51.506;7.678;2024-02-04T10:08:01;100576.16;;;9.78;100.00
37778;BME280;23615;51.506;7.678;2024-02-04T10:10:26;100582.94;;;9.74;100.00
37778;BME280;23615;51.506;7.678;2024-02-04T10:12:51;100575.97;;;9.86;100.00
37778;BME280;23615;51.506;7.678;2024-02-04T10:15:17;100575.16;;;9.72;100.00
37778;BME280;23615;51.506;7.678;2024-02-04T10:17:45;100573.69;;;9.76;100.00
37778;BME280;23615;51.506;7.678;2024-02-04T10:20:10;100580.47;;;9.72;100.00
37778;BME280;23615;51.506;7.678;2024-02-04T10:22:37;100583.75;;;9.68;100.00
37778;BME280;23615;51.506;7.678;2024-02-04T10:25:07;100577.59;;;9.54;100.00
37778;BME280;23615;51.506;7.678;2024-02-04T10:27:33;100587.63;;;9.59;100.00
37778;BME280;23615;51.506;7.678;2024-02-04T10:29:58;100581.22;;;9.33;100.00
37778;BME280;23615;51.506;7.678;2024-02-04T10:32:24;100580.03;;;9.36;100.00
37778;BME280;23615;51.506;7.678;2024-02-04T10:34:49;100590.69;;;9.43;100.00
37778;BME280;23615;51.506;7.678;2024-02-04T10:37:14;100578.56;;;9.40;100.00
37778;BME280;23615;51.506;7.678;2024-02-04T10:39:40;100572.22;;;9.34;100.00
37778;BME280;23615;51.506;7.678;2024-02-04T10:42:07;100581.63;;;9.24;100.00
37778;BME280;23615;51.506;7.678;2024-02-04T10:44:36;100567.09;;;9.39;100.00
37778;BME280;23615;51.506;7.678;2024-02-04T10:47:05;100560.13;;;9.38;100.00
37778;BME280;23615;51.506;7.678;2024-02-04T10:49:33;100567.34;;;9.45;100.00
37778;BME280;23615;51.506;7.678;2024-02-04T10:51:59;100565.69;;;9.44;100.00
37778;BME280;23615;51.506;7.678;2024-02-04T10:54:26;100570.63;;;9.53;100.00
37778;BME280;23615;51.506;7.678;2024-02-04T10:56:56;100558.75;;;9.56;100.00
37778;BME280;23615;51.506;7.678;2024-02-04T10:59:23;100557.28;;;9.66;100.00
37778;BME280;23615;51.506;7.678;2024-02-04T11:01:49;100560.38;;;9.76;100.00
37778;BME280;23615;51.506;7.678;2024-02-04T11:04:16;100560.16;;;9.85;100.00
37778;BME280;23615;51.506;7.678;2024-02-04T11:06:42;100545.41;;;9.89;100.00
37778;BME280;23615;51.506;7.678;2024-02-04T11:09:09;100542.94;;;9.94;100.00
37778;BME280;23615;51.506;7.678;2024-02-04T11:11:39;100556.91;;;9.89;100.00
37778;BME280;23615;51.506;7.678;2024-02-04T11:14:09;100562.84;;;9.91;100.00
37778;BME280;23615;51.506;7.678;2024-02-04T11:22:17;100544.78;;;10.13;100.00
37778;BME280;23615;51.506;7.678;2024-02-04T11:25:03;100555.03;;;10.23;100.00
37778;BME280;23615;51.506;7.678;2024-02-04T11:27:32;100546.22;;;10.29;100.00
37778;BME280;23615;51.506;7.678;2024-02-04T11:29:57;100546.00;;;10.30;100.00
37778;BME280;23615;51.506;7.678;2024-02-04T11:32:26;100547.63;;;10.38;100.00
37778;BME280;23615;51.506;7.678;2024-02-04T11:34:53;100545.56;;;10.40;100.00
37778;BME280;23615;51.506;7.678;2024-02-04T11:37:20;100537.31;;;10.48;100.00
37778;BME280;23615;51.506;7.678;2024-02-04T11:39:51;100544.72;;;10.53;100.00
37778;BME280;23615;51.506;7.678;2024-02-04T11:42:17;100537.56;;;10.46;100.00
37778;BME280;23615;51.506;7.678;2024-02-04T11:44:43;100519.69;;;10.47;100.00
37778;BME280;23615;51.506;7.678;2024-02-04T11:47:09;100529.72;;;10.52;100.00
37778;BME280;23615;51.506;7.678;2024-02-04T11:49:34;100517.84;;;10.54;100.00
37778;BME280;23615;51.506;7.678;2024-02-04T11:51:59;100504.91;;;10.51;100.00
37778;BME280;23615;51.506;7.678;2024-02-04T11:54:25;100503.84;;;10.59;100.00
37778;BME280;23615;51.506;7.678;2024-02-04T11:56:51;100511.63;;;10.60;100.00
37778;BME280;23615;51.506;7.678;2024-02-04T11:59:24;100508.34;;;10.58;100.00
37778;BME280;23615;51.506;7.678;2024-02-04T12:01:54;100502.66;;;10.55;100.00
37778;BME280;23615;51.506;7.678;2024-02-04T12:04:20;100504.44;;;10.61;100.00
37778;BME280;23615;51.506;7.678;2024-02-04T12:06:47;100510.22;;;10.51;100.00
37778;BME280;23615;51.506;7.678;2024-02-04T12:09:12;100511.09;;;10.45;100.00
37778;BME280;23615;51.506;7.678;2024-02-04T12:11:43;100496.28;;;10.49;100.00
37778;BME280;23615;51.506;7.678;2024-02-04T12:14:09;100499.41;;;10.46;100.00
37778;BME280;23615;51.506;7.678;2024-02-04T12:16:35;100503.09;;;10.38;100.00
37778;BME280;23615;51.506;7.678;2024-02-04T12:19:02;100492.66;;;10.37;100.00
37778;BME280;23615;51.506;7.678;2024-02-04T12:21:29;100484.00;;;10.41;100.00
37778;BME280;23615;51.506;7.678;2024-02-04T12:23:54;100489.31;;;10.48;100.00
37778;BME280;23615;51.506;7.678;2024-02-04T12:26:20;100486.25;;;10.44;100.00
37778;BME280;23615;51.506;7.678;2024-02-04T12:28:47;100465.34;;;10.41;100.00
37778;BME280;23615;51.506;7.678;2024-02-04T12:31:26;100470.28;;;10.31;100.00
37778;BME280;23615;51.506;7.678;2024-02-04T12:33:59;100480.75;;;10.33;100.00
37778;BME280;23615;51.506;7.678;2024-02-04T12:36:29;100489.16;;;10.36;100.00
37778;BME280;23615;51.506;7.678;2024-02-04T12:38:57;100492.44;;;10.32;100.00
37778;BME280;23615;51.506;7.678;2024-02-04T12:41:23;100484.47;;;10.25;100.00
37778;BME280;23615;51.506;7.678;2024-02-04T12:43:53;100470.31;;;10.25;100.00
37778;BME280;23615;51.506;7.678;2024-02-04T12:46:19;100463.94;;;10.32;100.00
37778;BME280;23615;51.506;7.678;2024-02-04T12:48:45;100466.41;;;10.34;100.00